• Join FlightAware (Why Join?)
  • Login
  • US Flag 
04:19AM EDT


 

Airport Tracker/Info


-or-


 

Live Flight TrackerFlight Track Log ✈ SWA182 ✈ 19-Jun-2013 ✈ KSAT - KLAX

Flight Track Log - Related Links

Times and Time Zones

All times are in EDT time to prevent confusion due to time zone crossing. See the SWA182 flight status page for this flight to view local times or setup timezone preferences in your user account.

Time Position Orientation Groundspeed Altitude Reporting Facility
EDT Latitude Longitude Course Direction KTS MPH feet Rate Location/Type
07:57PM 29.4839 -98.4086 134° Southeast 213 245 3,800  Level Houston Center
07:58PM 29.5275 -98.3578 45° Northeast 244 281 6,800 2,640 Climbing Houston Center
08:00PM 29.5925 -98.4264 317° Northwest 280 322 9,800 2,160 Climbing Houston Center
08:01PM 29.6569 -98.5081 312° West 328 377 11,900 2,460 Climbing Houston Center
08:02PM 29.7253 -98.5942 312° West 361 415 14,900 2,700 Climbing Houston Center
08:03PM 29.8008 -98.6914 312° West 378 435 17,600 2,520 Climbing Houston Center
08:04PM 29.8722 -98.7847 311° West 389 448 20,200 2,340 Climbing Houston Center
08:05PM 29.9489 -98.8900 310° West 402 463 22,500 2,100 Climbing Houston Center
08:06PM 30.0197 -98.9922 309° West 408 470 24,600 1,680 Climbing Houston Center
08:07PM 30.0906 -99.0950 309° West 419 482 26,000 720 Climbing Houston Center
08:08PM 30.1256 -99.2292 287° West 420 483 26,100 240 Climbing Houston Center
08:09PM 30.1625 -99.3558 289° West 427 491 26,500 480 Climbing Houston Center
08:10PM 30.1989 -99.4858 288° West 429 494 27,100 1,500 Climbing Houston Center
08:11PM 30.2389 -99.6392 287° West 419 482 29,700 1,380 Climbing Houston Center
08:12PM 30.2731 -99.7667 287° West 418 481 30,000 120 Climbing Houston Center
08:13PM 30.3069 -99.8933 287° West 416 479 30,000  Level Houston Center
08:14PM 30.3406 -100.0181 287° West 411 473 30,000  Level Houston Center
08:15PM 30.3728 -100.1406 287° West 403 464 30,000  Level Houston Center
08:16PM 30.4114 -100.2917 287° West 408 470 30,000  Level Houston Center
08:17PM 30.4444 -100.4186 287° West 414 476 30,000  Level Houston Center
08:18PM 30.4772 -100.5436 287° West 411 473 30,000  Level Houston Center
08:19PM 30.5097 -100.6692 287° West 409 471 30,000  Level Houston Center
08:20PM 30.5422 -100.7953 287° West 410 472 30,000  Level Houston Center
08:21PM 30.5806 -100.9472 286° West 410 472 30,000  Level Houston Center
08:22PM 30.5842 -101.0786 272° West 408 470 30,000  Level Houston Center
08:23PM 30.5756 -101.2122 266° West 415 478 30,000  Level Houston Center
08:24PM 30.5678 -101.3433 266° West 414 476 30,000  Level Houston Center
08:26PM 30.5606 -101.4750 266° West 413 475 30,000  Level Houston Center
08:27PM 30.5542 -101.6114 267° West 411 473 30,000  Level Houston Center
08:28PM 30.5450 -101.7700 266° West 410 472 30,000  Level Houston Center
08:29PM 30.5383 -101.9033 267° West 413 475 30,000  Level Houston Center
08:30PM 30.5314 -102.0367 267° West 413 475 30,000  Level Houston Center
08:31PM 30.5242 -102.1692 266° West 412 474 30,000  Level Houston Center
08:32PM 30.5156 -102.3033 266° West 413 475 30,000  Level Houston Center
08:32PM 30.5100 -102.4042 266° West 410 472 30,000  Level Albuquerque Center
08:33PM 30.5022 -102.5367 266° West 410 472 30,000  Level Albuquerque Center
08:35PM 30.4933 -102.6675 266° West 408 470 30,000  Level Albuquerque Center
08:36PM 30.4844 -102.7958 265° West 403 464 30,000  Level Albuquerque Center
08:37PM 30.4767 -102.9272 266° West 405 466 30,000  Level Albuquerque Center
08:38PM 30.4681 -103.0578 266° West 405 466 30,000  Level Albuquerque Center
08:39PM 30.4572 -103.2147 265° West 406 467 30,000  Level Albuquerque Center
08:40PM 30.4489 -103.3433 266° West 404 465 30,000  Level Albuquerque Center
08:41PM 30.4400 -103.4722 265° West 403 464 30,000  Level Albuquerque Center
08:42PM 30.4308 -103.6025 265° West 403 464 30,000  Level Albuquerque Center
08:43PM 30.4225 -103.7344 266° West 407 468 30,000  Level Albuquerque Center
08:44PM 30.4356 -103.8683 276° West 415 478 30,000  Level Albuquerque Center
08:45PM 30.4556 -103.9964 280° West 410 472 30,000  Level Albuquerque Center
08:46PM 30.4756 -104.1250 280° West 408 470 30,000  Level Albuquerque Center
08:47PM 30.5247 -104.2722 291° West 408 470 30,000  Level Albuquerque Center
08:48PM 30.5681 -104.3928 293° West 406 467 30,000  Level Albuquerque Center
08:49PM 30.6133 -104.5114 294° West 405 466 30,000  Level Albuquerque Center
08:50PM 30.6642 -104.6267 297° West 403 464 30,000  Level Albuquerque Center
08:51PM 30.7144 -104.7411 297° West 401 461 30,000  Level Albuquerque Center
08:52PM 30.7636 -104.8569 296° West 399 459 30,000  Level Albuquerque Center
08:53PM 30.8131 -104.9711 297° West 398 458 30,000  Level Albuquerque Center
08:54PM 30.8675 -105.0861 299° West 403 464 30,000  Level Albuquerque Center
08:55PM 30.9308 -105.2242 298° West 404 465 30,000  Level Albuquerque Center
08:56PM 30.9647 -105.3347 290° West 402 463 30,000 840 Level Albuquerque Center
08:58PM 31.0689 -105.6122 294° West 433 498 32,600 1,380 Climbing Albuquerque Center
08:59PM 31.1142 -105.7383 293° West 426 490 34,300 1,500 Climbing Albuquerque Center
09:00PM 31.1603 -105.8658 293° West 426 490 35,700 1,440 Climbing Albuquerque Center
09:01PM 31.2078 -105.9917 294° West 424 488 37,300 1,320 Climbing Albuquerque Center
09:02PM 31.2522 -106.1164 293° West 418 481 38,500 1,020 Climbing Albuquerque Center
09:03PM 31.2972 -106.2397 293° West 413 475 39,500 720 Climbing Albuquerque Center
09:04PM 31.3425 -106.3628 293° West 413 475 40,000 180 Climbing Albuquerque Center
09:05PM 31.3867 -106.4867 293° West 414 476 39,900  Descending Albuquerque Center
09:06PM 31.4367 -106.6250 293° West 411 473 40,000  Climbing Albuquerque Center
09:07PM 31.4806 -106.7475 293° West 408 470 40,000  Level Albuquerque Center
09:08PM 31.5239 -106.8678 293° West 403 464 40,000  Level Albuquerque Center
09:09PM 31.5586 -106.9647 293° West 402 463 40,000  Level Albuquerque Center
09:10PM 31.6003 -107.0853 292° West 399 459 40,000  Level Albuquerque Center
09:11PM 31.6525 -107.2317 293° West 403 464 40,000  Level Albuquerque Center
09:12PM 31.6956 -107.3556 292° West 407 468 40,000  Level Albuquerque Center
09:13PM 31.7381 -107.4789 292° West 406 467 40,000  Level Albuquerque Center
09:14PM 31.7769 -107.5883 293° West 408 470 40,000  Level Albuquerque Center
09:15PM 31.8269 -107.7356 292° West 408 470 40,000  Level Albuquerque Center
09:16PM 31.8686 -107.8572 292° West 405 466 40,000  Level Albuquerque Center
09:17PM 31.9078 -107.9725 292° West 404 465 40,000  Level Albuquerque Center
09:18PM 31.9508 -108.0956 292° West 405 466 40,000  Level Albuquerque Center
09:19PM 31.9939 -108.2225 292° West 404 465 40,000  Level Albuquerque Center
09:21PM 32.0356 -108.3444 292° West 404 465 40,000  Level Albuquerque Center
09:22PM 32.0842 -108.4914 291° West 404 465 40,000  Level Albuquerque Center
09:23PM 32.1261 -108.6133 292° West 403 464 40,000  Level Albuquerque Center
09:24PM 32.1667 -108.7372 291° West 405 466 40,100  Climbing Albuquerque Center
09:25PM 32.2067 -108.8606 291° West 406 467 40,000 -60 Descending Albuquerque Center
09:26PM 32.2478 -108.9825 292° West 404 465 40,000  Level Albuquerque Center
09:27PM 32.2886 -109.1050 292° West 403 464 40,000  Level Albuquerque Center
09:28PM 32.3367 -109.2492 292° West 399 459 40,000  Level Albuquerque Center
09:29PM 32.3778 -109.3719 292° West 401 461 40,000  Level Albuquerque Center
09:30PM 32.4181 -109.4958 291° West 405 466 40,000  Level Albuquerque Center
09:31PM 32.4581 -109.6197 291° West 405 466 40,000  Level Albuquerque Center
09:32PM 32.4994 -109.7456 291° West 410 472 40,000  Level Albuquerque Center
09:33PM 32.5417 -109.8708 292° West 412 474 40,000  Level Albuquerque Center
09:34PM 32.5808 -109.9942 291° West 406 467 40,000  Level Albuquerque Center
09:35PM 32.6214 -110.1172 291° West 405 466 40,000  Level Albuquerque Center
09:36PM 32.6672 -110.2617 291° West 395 455 40,000  Level Albuquerque Center
09:37PM 32.7058 -110.3806 291° West 390 449 40,000  Level Albuquerque Center
09:38PM 32.7450 -110.5014 291° West 394 453 40,000  Level Albuquerque Center
09:39PM 32.7825 -110.6244 290° West 397 457 40,000  Level Albuquerque Center
09:40PM 32.8281 -110.7622 292° West 399 459 40,000  Level Albuquerque Center
09:41PM 32.8664 -110.8850 290° West 397 457 40,000  Level Albuquerque Center
09:42PM 32.9042 -111.0078 290° West 395 455 40,000  Level Albuquerque Center
09:43PM 32.9428 -111.1281 291° West 390 449 40,000  Level Albuquerque Center
09:44PM 32.9814 -111.2522 290° West 399 459 40,000  Level Albuquerque Center
09:45PM 33.0183 -111.3761 290° West 399 459 40,000  Level Albuquerque Center
09:46PM 33.0569 -111.4992 291° West 397 457 40,000  Level Albuquerque Center
09:47PM 33.0944 -111.6231 290° West 396 456 40,000  Level Albuquerque Center
09:48PM 33.1322 -111.7472 290° West 397 457 40,000  Level Albuquerque Center
09:49PM 33.1775 -111.8978 290° West 399 459 40,000  Level Albuquerque Center
09:50PM 33.2153 -112.0228 290° West 400 460 40,000  Level Albuquerque Center
09:51PM 33.2528 -112.1475 290° West 400 460 40,000  Level Albuquerque Center
09:52PM 33.2906 -112.2731 290° West 399 459 40,000  Level Albuquerque Center
09:53PM 33.3281 -112.4011 289° West 404 465 40,000  Level Albuquerque Center
09:54PM 33.3658 -112.5281 290° West 405 466 40,000  Level Albuquerque Center
09:55PM 33.4081 -112.6703 290° West 407 468 40,000  Level Albuquerque Center
09:56PM 33.4467 -112.7986 290° West 409 471 40,000  Level Albuquerque Center
09:57PM 33.4889 -112.9242 292° West 409 471 40,000  Level Albuquerque Center
09:58PM 33.5342 -113.0497 293° West 412 474 40,000  Level Albuquerque Center
09:59PM 33.5797 -113.1767 293° West 415 478 40,000  Level Albuquerque Center
10:00PM 33.6253 -113.3042 293° West 417 480 40,000  Level Albuquerque Center
10:01PM 33.6758 -113.4478 293° West 418 481 40,000  Level Albuquerque Center
10:03PM 33.7206 -113.5769 293° West 420 483 40,000  Level Albuquerque Center
10:04PM 33.7656 -113.7050 293° West 417 480 40,000  Level Albuquerque Center
10:05PM 33.8106 -113.8344 293° West 418 481 40,000  Level Albuquerque Center
10:06PM 33.8567 -113.9631 293° West 418 481 40,000  Level Albuquerque Center
10:07PM 33.9000 -114.0922 292° West 418 481 40,000  Level Albuquerque Center
10:07PM 33.9236 -114.1594 293° West 419 482 40,000  Level Los Angeles Center
10:08PM 33.9656 -114.3153 288° West 412 474 40,000  Level Los Angeles Center
10:09PM 33.9792 -114.4508 277° West 409 471 40,000  Level Los Angeles Center
10:10PM 33.9931 -114.5861 277° West 409 471 40,000  Level Los Angeles Center
10:11PM 34.0083 -114.7211 278° West 407 468 40,000  Level Los Angeles Center
10:12PM 34.0217 -114.8544 277° West 404 465 40,000  Level Los Angeles Center
10:13PM 34.0347 -114.9875 277° West 402 463 40,000  Level Los Angeles Center
10:14PM 34.0522 -115.1494 277° West 407 468 40,000 -300 Level Los Angeles Center
10:15PM 34.0650 -115.2842 277° West 407 468 39,500 -780 Descending Los Angeles Center
10:16PM 34.0794 -115.4178 277° West 404 465 38,500 -960 Descending Los Angeles Center
10:17PM 34.0914 -115.5503 276° West 402 463 37,600 -960 Descending Los Angeles Center
10:18PM 34.1039 -115.6853 276° West 407 468 36,600 -960 Descending Los Angeles Center
10:19PM 34.1067 -115.8194 271° West 406 467 35,700 -960 Descending Los Angeles Center
10:21PM 34.0850 -115.9522 259° West 407 468 34,700 -1,080 Descending Los Angeles Center
10:22PM 34.0617 -116.1144 260° West 410 472 33,500 -1,320 Descending Los Angeles Center
10:23PM 34.0414 -116.2489 260° West 409 471 32,000 -1,860 Descending Los Angeles Center
10:24PM 34.0211 -116.3797 259° West 403 464 29,700 -2,160 Descending Los Angeles Center
10:25PM 34.0031 -116.5058 260° West 388 447 27,600 -2,040 Descending Los Angeles Center
10:26PM 33.9944 -116.6281 265° West 371 427 25,500 -2,040 Descending Los Angeles Center
10:27PM 33.9847 -116.7489 264° West 365 420 23,400 -2,280 Descending Los Angeles Center
10:28PM 33.9719 -116.8878 264° West 352 405 20,900 -1,920 Descending Los Angeles Center
10:29PM 33.9667 -117.0000 267° West 338 389 19,600 -1,080 Descending Southern California TRACON
10:30PM 33.9833 -117.1167 280° West 342 394 18,800 -1,140 Descending Southern California TRACON
10:31PM 33.9833 -117.2333 270° West 309 356 17,300 -1,620 Descending Southern California TRACON
10:33PM 34.0000 -117.4333 276° West 297 342 14,100 -1,680 Descending Southern California TRACON
10:34PM 34.0167 -117.5333 281° West 293 337 12,500 -1,560 Descending Southern California TRACON
10:35PM 34.0167 -117.6167 270° West 284 327 11,000 -1,260 Descending Southern California TRACON
10:36PM 34.0167 -117.7167 270° West 279 321 9,900 -900 Descending Southern California TRACON
10:37PM 34.0167 -117.8000 270° West 250 288 9,200 -900 Descending Southern California TRACON
10:38PM 34.0000 -117.8833 256° West 243 280 8,100 -1,020 Descending Southern California TRACON
10:39PM 34.0000 -117.9667 270° West 229 264 7,200 -1,140 Descending Southern California TRACON
10:40PM 33.9833 -118.0333 253° West 213 245 5,900 -1,200 Descending Southern California TRACON
10:41PM 33.9833 -118.1000 270° West 198 228 4,800 -1,080 Descending Southern California TRACON
10:42PM 33.9833 -118.1833 270° West 196 226 3,700 -960 Descending Southern California TRACON
10:43PM 33.9667 -118.2333 248° West 193 222 2,900 -1,020 Descending Southern California TRACON
10:44PM 33.9667 -118.3000 270° West 199 229 1,800 -1,020 Descending Southern California TRACON
10:45PM 33.9500 -118.3500 248° West 144 166 900 -720 Descending Southern California TRACON
10:46PM 33.9511 -118.4106 271° West 146 168 200 -540 Descending Los Angeles Center
10:48PM 33.9425 -118.4081 180° South  Level Estimated